createdAt,value
2023-05-28T00:01:50.188Z,100810.91
2023-05-28T00:03:55.784Z,100811.98
2023-05-28T00:06:01.467Z,100804.97
2023-05-28T00:08:07.111Z,100806.61
2023-05-28T00:10:12.447Z,100805.73
2023-05-28T00:12:17.687Z,100799.16
2023-05-28T00:14:23.231Z,100803.98
2023-05-28T00:16:28.879Z,100801.06
2023-05-28T00:18:34.608Z,100802.63
2023-05-28T00:20:40.115Z,100801.94
2023-05-28T00:22:45.599Z,100799.63
2023-05-28T00:24:51.147Z,100797
2023-05-28T00:26:57.101Z,100798.8
2023-05-28T00:29:02.544Z,100796.55
2023-05-28T00:31:07.871Z,100793.38
2023-05-28T00:33:13.623Z,100794.77
2023-05-28T00:35:18.866Z,100788.64
2023-05-28T00:37:24.299Z,100790.3
2023-05-28T00:39:29.634Z,100787.3
2023-05-28T00:41:35.091Z,100791.52
2023-05-28T00:43:40.719Z,100787.38
2023-05-28T00:45:46.309Z,100789.66
2023-05-28T00:47:52.058Z,100786.86
2023-05-28T00:49:57.451Z,100789.08
2023-05-28T00:52:02.801Z,100783.34
2023-05-28T00:54:08.363Z,100781.37
2023-05-28T00:56:13.568Z,100779.91
2023-05-28T00:58:18.924Z,100775.17
2023-05-28T01:00:24.562Z,100771.42
2023-05-28T01:02:29.958Z,100773.64
2023-05-28T01:04:35.230Z,100765.6
2023-05-28T01:06:40.673Z,100766.99
2023-05-28T01:08:46.006Z,100766.17
2023-05-28T01:10:51.559Z,100764.52
2023-05-28T01:12:57.092Z,100763.69
2023-05-28T01:15:02.399Z,100765.46
2023-05-28T01:17:08.074Z,100764.75
2023-05-28T01:19:13.513Z,100763.85
2023-05-28T01:21:18.899Z,100763.92
2023-05-28T01:23:24.500Z,100763.34
2023-05-28T01:25:29.937Z,100756.87
2023-05-28T01:27:35.175Z,100758.16
2023-05-28T01:29:40.619Z,100756.34
2023-05-28T01:31:46.173Z,100757.03
2023-05-28T01:33:51.600Z,100754.27
2023-05-28T01:35:57.065Z,100756.8
2023-05-28T01:38:02.370Z,100758.22
2023-05-28T01:40:07.614Z,100758.14
2023-05-28T01:42:12.842Z,100753.91
2023-05-28T01:44:18.278Z,100753.09
2023-05-28T01:46:23.597Z,100754.48
2023-05-28T01:48:28.965Z,100748.84
2023-05-28T01:50:34.397Z,100743.42
2023-05-28T01:52:39.729Z,100746.83
2023-05-28T01:54:45.169Z,100748.25
2023-05-28T01:56:50.446Z,100742.79
2023-05-28T01:58:55.627Z,100744.19
2023-05-28T02:01:00.843Z,100743.46
2023-05-28T02:03:06.310Z,100744.14
2023-05-28T02:05:11.870Z,100744.14
2023-05-28T02:07:17.294Z,100740.88
2023-05-28T02:09:22.740Z,100740.45
2023-05-28T02:11:27.969Z,100739.2
2023-05-28T02:13:33.310Z,100734.22
2023-05-28T02:17:08.914Z,100734.95
2023-05-28T02:19:14.119Z,100738.61
2023-05-28T02:21:19.422Z,100737.05
2023-05-28T02:23:24.894Z,100737.8
2023-05-28T02:25:30.238Z,100734.86
2023-05-28T02:27:35.557Z,100736.52
2023-05-28T02:29:40.905Z,100736.98
2023-05-28T02:31:46.300Z,100737.36
2023-05-28T02:33:51.682Z,100736.6
2023-05-28T02:35:57.372Z,100736.01
2023-05-28T02:38:02.667Z,100735.94
2023-05-28T02:40:08.005Z,100740.33
2023-05-28T02:42:13.437Z,100737.3
2023-05-28T02:44:18.769Z,100735.82
2023-05-28T02:46:24.132Z,100735.58
2023-05-28T02:48:29.652Z,100740.05
2023-05-28T02:50:35.247Z,100740.89
2023-05-28T02:52:40.472Z,100741.71
2023-05-28T02:54:45.772Z,100739.77
2023-05-28T02:56:51.182Z,100738.84
2023-05-28T02:58:56.425Z,100734.38
2023-05-28T03:01:01.757Z,100739.38
2023-05-28T03:03:07.447Z,100738.28
2023-05-28T03:05:12.931Z,100740.43
2023-05-28T03:07:18.301Z,100740.84
2023-05-28T03:09:23.745Z,100743.84
2023-05-28T03:11:29.181Z,100744.27
2023-05-28T03:13:34.522Z,100750.02
2023-05-28T03:15:40.165Z,100749.81
2023-05-28T03:17:45.737Z,100750.19
2023-05-28T03:19:51.358Z,100754.26
2023-05-28T03:21:56.894Z,100755
2023-05-28T03:24:03.148Z,100750.37
2023-05-28T03:26:08.600Z,100748.89
2023-05-28T03:28:13.933Z,100748.13
2023-05-28T03:30:19.257Z,100749.83
2023-05-28T03:32:24.641Z,100746.61
2023-05-28T03:34:30.104Z,100746.58
2023-05-28T03:36:35.448Z,100744.91
2023-05-28T03:38:40.624Z,100746.5
2023-05-28T03:40:46.085Z,100749.33
2023-05-28T03:42:51.504Z,100748.7
2023-05-28T03:44:56.843Z,100751.98
2023-05-28T03:47:02.067Z,100754.47
2023-05-28T03:49:07.531Z,100752.14
2023-05-28T03:51:13.063Z,100749.05
2023-05-28T03:53:18.395Z,100753.46
2023-05-28T03:55:23.650Z,100753.09
2023-05-28T03:57:28.930Z,100754.73
2023-05-28T03:59:34.314Z,100752.3
2023-05-28T04:01:39.546Z,100753.11
2023-05-28T04:03:45.230Z,100749.42
2023-05-28T04:05:50.989Z,100751.36
2023-05-28T04:07:56.580Z,100751.53
2023-05-28T04:10:02.029Z,100749.42
2023-05-28T04:12:07.453Z,100748.7
2023-05-28T04:14:12.800Z,100747.42
2023-05-28T04:16:18.263Z,100747.9
2023-05-28T04:18:23.663Z,100746.95
2023-05-28T04:20:28.998Z,100745.72
2023-05-28T04:22:34.351Z,100747.83
2023-05-28T04:24:39.641Z,100747.31
2023-05-28T04:26:45.025Z,100746.8
2023-05-28T04:28:50.300Z,100745
2023-05-28T04:30:55.594Z,100746.64
2023-05-28T04:33:00.955Z,100749.94
2023-05-28T04:35:06.343Z,100749.36
2023-05-28T04:37:11.614Z,100746.56
2023-05-28T04:39:16.959Z,100746.63
2023-05-28T04:41:22.192Z,100744.7
2023-05-28T04:43:27.335Z,100744.39
2023-05-28T04:45:32.651Z,100743.3
2023-05-28T04:47:38.066Z,100743.13
2023-05-28T04:49:43.454Z,100742.94
2023-05-28T04:51:48.876Z,100742.91
2023-05-28T04:53:54.113Z,100746.92
2023-05-28T04:55:59.463Z,100748.86
2023-05-28T04:58:05.024Z,100746.99
2023-05-28T05:00:10.444Z,100751.55
2023-05-28T05:02:15.929Z,100747.7
2023-05-28T05:04:21.403Z,100747.81
2023-05-28T05:06:27.063Z,100745.56
2023-05-28T05:08:32.412Z,100749.11
2023-05-28T05:10:37.710Z,100749.48
2023-05-28T05:12:43.033Z,100751.03
2023-05-28T05:14:48.314Z,100753.86
2023-05-28T05:16:53.873Z,100754.94
2023-05-28T05:18:59.397Z,100753.68
2023-05-28T05:21:04.817Z,100750.92
2023-05-28T05:23:10.165Z,100748.54
2023-05-28T05:25:15.415Z,100754.73
2023-05-28T05:27:20.791Z,100754.05
2023-05-28T05:29:26.090Z,100753.13
2023-05-28T05:31:31.527Z,100753.07
2023-05-28T05:33:37.189Z,100747.65
2023-05-28T05:35:42.516Z,100750.71
2023-05-28T05:37:47.743Z,100749.41
2023-05-28T05:39:53.085Z,100744.65
2023-05-28T05:41:58.308Z,100746.42
2023-05-28T05:44:03.543Z,100747.75
2023-05-28T05:46:08.964Z,100746.17
2023-05-28T05:48:14.424Z,100746.84
2023-05-28T05:50:19.776Z,100744.42
2023-05-28T05:52:25.011Z,100741.74
2023-05-28T05:54:30.350Z,100739.78
2023-05-28T05:56:36.097Z,100740.56
2023-05-28T05:58:41.433Z,100748.27
2023-05-28T06:00:46.683Z,100744.98
2023-05-28T06:02:52.816Z,100744.2
2023-05-28T06:04:58.435Z,100743.63
2023-05-28T06:07:03.844Z,100744.51
2023-05-28T06:09:09.472Z,100738.55
2023-05-28T06:11:15.008Z,100736.09
2023-05-28T06:13:20.329Z,100737.5
2023-05-28T06:15:25.565Z,100735.28
2023-05-28T06:17:31.026Z,100737.38
2023-05-28T06:19:36.660Z,100738.66
2023-05-28T06:21:41.885Z,100737.31
2023-05-28T06:23:47.331Z,100740.08
2023-05-28T06:25:53.421Z,100732.91
2023-05-28T06:27:59.029Z,100731.1
2023-05-28T06:30:04.355Z,100731.62
2023-05-28T06:32:09.791Z,100742.47
2023-05-28T06:34:15.050Z,100746.95
2023-05-28T06:36:20.482Z,100744.73
2023-05-28T06:38:25.826Z,100743.31
2023-05-28T06:40:32.594Z,100739.84
2023-05-28T06:42:38.036Z,100740.39
2023-05-28T06:44:43.367Z,100741.52
2023-05-28T06:46:48.751Z,100742.24
2023-05-28T06:48:54.361Z,100735
2023-05-28T06:50:59.792Z,100732.97
2023-05-28T06:53:05.131Z,100738.7
2023-05-28T06:55:10.403Z,100738.8
2023-05-28T06:57:15.676Z,100735.94
2023-05-28T06:59:21.042Z,100742.53
2023-05-28T07:01:26.385Z,100746.19
2023-05-28T07:03:31.706Z,100745.38
2023-05-28T07:05:37.158Z,100744.09
2023-05-28T07:07:42.517Z,100746.86
2023-05-28T07:09:47.936Z,100744.83
2023-05-28T07:11:53.383Z,100744.69
2023-05-28T07:13:58.948Z,100745.84
2023-05-28T07:16:04.687Z,100745.18
2023-05-28T07:18:10.139Z,100744.84
2023-05-28T07:20:15.737Z,100743.56
2023-05-28T07:22:21.499Z,100741.06
2023-05-28T07:24:27.566Z,100746.59
2023-05-28T07:26:33.019Z,100741.95
2023-05-28T07:28:38.539Z,100745.98
2023-05-28T07:30:44.086Z,100747.3
2023-05-28T07:32:49.570Z,100741.33
2023-05-28T07:34:55.023Z,100738.75
2023-05-28T07:37:00.606Z,100739.18
2023-05-28T07:39:05.946Z,100737.27
2023-05-28T07:41:11.282Z,100730.53
2023-05-28T07:43:16.747Z,100728.74
2023-05-28T07:45:22.162Z,100733.05
2023-05-28T07:47:27.509Z,100726.98
2023-05-28T07:49:32.936Z,100727.75
2023-05-28T07:51:38.239Z,100727.57
2023-05-28T07:53:43.621Z,100724.36
2023-05-28T07:55:49.055Z,100723.31
2023-05-28T07:57:54.296Z,100719
2023-05-28T07:59:59.736Z,100717.06
2023-05-28T08:02:05.161Z,100707.06
2023-05-28T08:04:10.998Z,100717.94
2023-05-28T08:06:16.680Z,100711.77
2023-05-28T08:08:21.997Z,100706.81
2023-05-28T08:10:27.447Z,100706.3
2023-05-28T08:12:32.880Z,100705.79
2023-05-28T08:14:38.536Z,100702.76
2023-05-28T08:16:44.216Z,100703.72
2023-05-28T08:18:49.713Z,100709.39
2023-05-28T08:20:55.098Z,100702.36
2023-05-28T08:23:00.511Z,100702.72
2023-05-28T08:25:05.832Z,100701.34
2023-05-28T08:27:11.340Z,100699.05
2023-05-28T08:29:16.624Z,100699.45
2023-05-28T08:31:22.096Z,100691.78
2023-05-28T08:33:27.666Z,100695.83
2023-05-28T08:35:33.089Z,100692.69
2023-05-28T08:37:38.477Z,100687.48
2023-05-28T08:39:44.019Z,100695.3
2023-05-28T08:41:49.563Z,100692.04
2023-05-28T08:43:55.102Z,100694.84
2023-05-28T08:46:00.529Z,100694.89
2023-05-28T08:48:10.974Z,100689.98
2023-05-28T08:50:17.355Z,100690.95
2023-05-28T08:52:22.689Z,100691.66
2023-05-28T08:54:28.038Z,100694.97
2023-05-28T08:56:33.324Z,100695
2023-05-28T08:58:38.814Z,100688.53
2023-05-28T09:00:44.156Z,100682.92
2023-05-28T09:02:49.685Z,100683.64
2023-05-28T09:04:55.213Z,100681.47
2023-05-28T09:07:02.926Z,100679.53
2023-05-28T09:09:08.276Z,100683.87
2023-05-28T09:11:13.583Z,100679.44
2023-05-28T09:13:18.947Z,100680.16
2023-05-28T09:15:24.278Z,100680.78
2023-05-28T09:17:29.739Z,100680.5
2023-05-28T09:19:35.139Z,100672.13
2023-05-28T09:21:40.922Z,100672.23
2023-05-28T09:23:46.981Z,100675.84
2023-05-28T09:25:53.089Z,100668.72
2023-05-28T09:27:59.684Z,100673.63
2023-05-28T09:30:05.116Z,100675.13
2023-05-28T09:32:10.767Z,100674.65
2023-05-28T09:34:16.206Z,100674.8
2023-05-28T09:36:21.758Z,100674.83
2023-05-28T09:38:26.977Z,100674.42
2023-05-28T09:40:32.294Z,100673.67
2023-05-28T09:42:37.508Z,100672.66
2023-05-28T09:44:42.871Z,100661.92
2023-05-28T09:46:48.719Z,100670.81
2023-05-28T09:48:53.993Z,100660.97
2023-05-28T09:50:59.213Z,100655.14
2023-05-28T09:53:04.584Z,100650.61
2023-05-28T09:55:10.097Z,100650.88
2023-05-28T09:57:15.442Z,100651.84
2023-05-28T09:59:20.796Z,100650.03
2023-05-28T10:01:26.221Z,100648.47
2023-05-28T10:03:32.163Z,100656.3
2023-05-28T10:05:38.126Z,100653.88
2023-05-28T10:07:43.512Z,100656.67
2023-05-28T10:09:48.913Z,100653.84
2023-05-28T10:11:54.558Z,100648.39
2023-05-28T10:13:59.884Z,100652.58
2023-05-28T10:16:05.439Z,100649.61
2023-05-28T10:18:11.103Z,100653.22
2023-05-28T10:20:16.566Z,100651.69
2023-05-28T10:22:22.032Z,100643.92
2023-05-28T10:24:27.499Z,100649.68
2023-05-28T10:26:32.961Z,100639.96
2023-05-28T10:28:38.269Z,100637.34
2023-05-28T10:30:43.809Z,100635.6
2023-05-28T10:32:49.178Z,100636.45
2023-05-28T10:34:54.794Z,100626.94
2023-05-28T10:37:05.125Z,100631.7
2023-05-28T10:39:10.339Z,100628.01
2023-05-28T10:41:15.540Z,100627.16
2023-05-28T10:43:20.864Z,100622.55
2023-05-28T10:45:26.255Z,100621.31
2023-05-28T10:47:31.526Z,100623.95
2023-05-28T10:49:36.849Z,100627.27
2023-05-28T10:51:41.989Z,100619.52
2023-05-28T10:53:47.363Z,100618.22
2023-05-28T10:55:53.408Z,100613.8
2023-05-28T10:57:59.957Z,100614.03
2023-05-28T11:00:05.353Z,100619.82
2023-05-28T11:02:10.724Z,100616.27
2023-05-28T11:04:16.187Z,100611.94
2023-05-28T11:06:21.603Z,100612.5
2023-05-28T11:08:26.963Z,100611.21
2023-05-28T11:10:33.996Z,100608.36
2023-05-28T11:12:39.539Z,100607.75
2023-05-28T11:14:44.939Z,100614.42
2023-05-28T11:16:50.473Z,100614.77
2023-05-28T11:18:57.093Z,100621.79
2023-05-28T11:21:03.390Z,100624.91
2023-05-28T11:23:08.796Z,100613.19
2023-05-28T11:25:14.138Z,100613.13
2023-05-28T11:27:19.565Z,100609.88
2023-05-28T11:29:24.889Z,100612.59
2023-05-28T11:31:30.289Z,100604.45
2023-05-28T11:33:36.004Z,100603.78
2023-05-28T11:35:41.464Z,100604.25
2023-05-28T11:37:46.933Z,100601.24
2023-05-28T11:39:52.418Z,100601.77
2023-05-28T11:41:57.815Z,100594.54
2023-05-28T11:44:03.104Z,100590.92
2023-05-28T11:46:08.586Z,100588.78
2023-05-28T11:48:14.133Z,100587.5
2023-05-28T11:50:19.720Z,100587.89
2023-05-28T11:52:25.083Z,100584.35
2023-05-28T11:54:30.412Z,100577.29
2023-05-28T11:56:35.831Z,100579.8
2023-05-28T11:58:41.091Z,100579.95
2023-05-28T12:00:46.633Z,100569.34
2023-05-28T12:02:52.292Z,100567.8
2023-05-28T12:04:57.672Z,100570.35
2023-05-28T12:07:03.060Z,100563.84
2023-05-28T12:09:08.800Z,100570.88
2023-05-28T12:11:14.332Z,100568.09
2023-05-28T12:13:19.685Z,100568.04
2023-05-28T12:15:25.129Z,100561.16
2023-05-28T12:17:30.379Z,100564.78
2023-05-28T12:19:35.585Z,100565.69
2023-05-28T12:21:40.772Z,100568.22
2023-05-28T12:23:46.049Z,100568.31
2023-05-28T12:25:51.461Z,100566.89
2023-05-28T12:27:56.744Z,100556.67
2023-05-28T12:30:02.077Z,100547.59
2023-05-28T12:32:08.103Z,100558.66
2023-05-28T12:34:13.755Z,100556.2
2023-05-28T12:36:19.086Z,100549.86
2023-05-28T12:38:24.536Z,100545.58
2023-05-28T12:40:29.867Z,100543.72
2023-05-28T12:42:35.307Z,100546.17
2023-05-28T12:44:40.695Z,100541.32
2023-05-28T12:46:46.332Z,100553.15
2023-05-28T12:48:51.856Z,100545.93
2023-05-28T12:50:57.873Z,100546.23
2023-05-28T12:53:03.443Z,100537.94
2023-05-28T12:55:18.235Z,100530.3
2023-05-28T12:57:24.214Z,100532.75
2023-05-28T12:59:29.610Z,100533.59
2023-05-28T13:01:35.049Z,100526.31
2023-05-28T13:03:41.481Z,100528.78
2023-05-28T13:05:47.447Z,100530.55
2023-05-28T13:07:52.882Z,100531.31
2023-05-28T13:09:58.131Z,100531.14
2023-05-28T13:12:03.553Z,100522.64
2023-05-28T13:14:08.896Z,100517.38
2023-05-28T13:16:16.497Z,100515.58
2023-05-28T13:18:21.924Z,100511.32
2023-05-28T13:20:27.606Z,100510.06
2023-05-28T13:22:33.008Z,100513.23
2023-05-28T13:24:48.289Z,100511.03
2023-05-28T13:26:53.520Z,100509.98
2023-05-28T13:28:58.830Z,100509.08
2023-05-28T13:31:04.276Z,100506.59
2023-05-28T13:33:09.968Z,100510.88
2023-05-28T13:35:15.580Z,100499.8
2023-05-28T13:37:21.035Z,100499.85
2023-05-28T13:39:26.380Z,100500.48
2023-05-28T13:41:31.804Z,100502.75
2023-05-28T13:43:37.551Z,100500.34
2023-05-28T13:45:43.103Z,100493.25
2023-05-28T13:47:48.907Z,100489.88
2023-05-28T13:49:54.491Z,100485.77
2023-05-28T13:52:00.150Z,100479.89
2023-05-28T13:54:05.743Z,100472.53
2023-05-28T13:56:11.670Z,100471.87
2023-05-28T13:58:17.083Z,100471.38
2023-05-28T14:00:39.688Z,100473.05
2023-05-28T14:02:45.657Z,100476.23
2023-05-28T14:04:51.382Z,100477.88
2023-05-28T14:06:57.066Z,100484.67
2023-05-28T14:09:02.756Z,100479.14
2023-05-28T14:11:08.351Z,100475.27
2023-05-28T14:13:13.712Z,100475.75
2023-05-28T14:15:19.340Z,100469.58
2023-05-28T14:17:25.125Z,100470.86
2023-05-28T14:19:31.239Z,100465.81
2023-05-28T14:21:36.712Z,100464.8
2023-05-28T14:23:42.637Z,100461.34
2023-05-28T14:25:48.174Z,100461.73
2023-05-28T14:28:12.803Z,100457.42
2023-05-28T14:30:18.681Z,100450.22
2023-05-28T14:32:25.476Z,100445.13
2023-05-28T14:34:31.038Z,100444.73
2023-05-28T14:36:36.763Z,100446.81
2023-05-28T14:38:42.755Z,100449.64
2023-05-28T14:40:48.482Z,100440.59
2023-05-28T14:42:54.128Z,100440.06
2023-05-28T14:44:59.464Z,100440.13
2023-05-28T14:47:05.073Z,100436.66
2023-05-28T14:49:11.277Z,100435.52
2023-05-28T14:51:16.912Z,100431.5
2023-05-28T14:53:22.552Z,100431.09
2023-05-28T14:55:28.302Z,100427.95
2023-05-28T14:57:33.936Z,100430.98
2023-05-28T14:59:39.386Z,100430.82
2023-05-28T15:01:45.194Z,100428.53
2023-05-28T15:03:51.042Z,100424.59
2023-05-28T15:05:57.243Z,100422.38
2023-05-28T15:08:03.029Z,100427.76
2023-05-28T15:10:08.823Z,100427.72
2023-05-28T15:12:14.570Z,100428.34
2023-05-28T15:14:20.224Z,100430.14
2023-05-28T15:16:25.901Z,100431.55
2023-05-28T15:18:31.894Z,100431.78
2023-05-28T15:20:37.642Z,100429.45
2023-05-28T15:22:43.218Z,100432.91
2023-05-28T15:24:48.653Z,100430.28
2023-05-28T15:26:54.387Z,100431.45
2023-05-28T15:29:01.150Z,100428.07
2023-05-28T15:31:07.625Z,100425.23
2023-05-28T15:33:13.150Z,100425.33
2023-05-28T15:35:18.707Z,100422.72
2023-05-28T15:37:24.247Z,100425.22
2023-05-28T15:39:29.697Z,100423.88
2023-05-28T15:41:35.334Z,100427.09
2023-05-28T15:43:40.884Z,100425.09
2023-05-28T15:45:46.412Z,100424.31
2023-05-28T15:47:52.009Z,100430.17
2023-05-28T15:49:57.851Z,100429.52
2023-05-28T15:52:03.582Z,100428.91
2023-05-28T15:54:08.901Z,100430.61
2023-05-28T15:56:14.324Z,100425.93
2023-05-28T15:58:19.877Z,100425.41
2023-05-28T16:00:25.633Z,100425.11
2023-05-28T16:02:31.895Z,100423.98
2023-05-28T16:04:37.645Z,100418.83
2023-05-28T16:06:43.285Z,100418.7
2023-05-28T16:08:49.052Z,100416.21
2023-05-28T16:10:54.714Z,100414.2
2023-05-28T16:13:00.349Z,100407.88
2023-05-28T16:15:06.666Z,100409.91
2023-05-28T16:17:12.623Z,100411.78
2023-05-28T16:19:18.392Z,100410.52
2023-05-28T16:21:26.607Z,100413.01
2023-05-28T16:23:32.570Z,100415.94
2023-05-28T16:25:38.539Z,100409.96
2023-05-28T16:27:44.046Z,100402.97
2023-05-28T16:29:49.698Z,100409.2
2023-05-28T16:31:55.232Z,100403.45
2023-05-28T16:34:00.782Z,100407.83
2023-05-28T16:36:06.322Z,100403.73
2023-05-28T16:38:11.656Z,100402.23
2023-05-28T16:40:17.522Z,100406.84
2023-05-28T16:42:23.062Z,100405.25
2023-05-28T16:44:28.402Z,100402.22
2023-05-28T16:46:33.904Z,100401.59
2023-05-28T16:48:39.650Z,100402.45
2023-05-28T16:50:45.035Z,100407.83
2023-05-28T16:52:50.554Z,100406.28
2023-05-28T16:54:55.892Z,100407.51
2023-05-28T16:57:01.331Z,100408.03
2023-05-28T16:59:06.684Z,100410.41
2023-05-28T17:01:11.922Z,100411.06
2023-05-28T17:03:17.398Z,100404.33
2023-05-28T17:05:22.755Z,100400.38
2023-05-28T17:07:28.737Z,100400.71
2023-05-28T17:09:33.978Z,100405.66
2023-05-28T17:11:39.619Z,100405.41
2023-05-28T17:13:45.061Z,100402.81
2023-05-28T17:15:50.495Z,100405.53
2023-05-28T17:17:56.248Z,100405.45
2023-05-28T17:20:02.186Z,100404
2023-05-28T17:22:07.644Z,100404.09
2023-05-28T17:24:13.249Z,100399.3
2023-05-28T17:26:19.753Z,100401.48
2023-05-28T17:28:25.401Z,100398.73
2023-05-28T17:30:30.983Z,100397.31
2023-05-28T17:32:36.402Z,100398.45
2023-05-28T17:34:41.929Z,100398.36
2023-05-28T17:36:47.390Z,100395.28
2023-05-28T17:38:53.107Z,100397.65
2023-05-28T17:40:58.700Z,100391.72
2023-05-28T17:43:04.204Z,100390.92
2023-05-28T17:45:09.565Z,100393.03
2023-05-28T17:47:15.591Z,100396.35
2023-05-28T17:49:21.028Z,100396.92
2023-05-28T17:51:26.768Z,100398.05
2023-05-28T17:53:43.202Z,100395.88
2023-05-28T17:55:53.227Z,100393.27
2023-05-28T17:57:58.760Z,100396.5
2023-05-28T18:00:04.318Z,100393.16
2023-05-28T18:02:09.970Z,100393.68
2023-05-28T18:04:15.322Z,100391.58
2023-05-28T18:06:20.739Z,100390.32
2023-05-28T18:08:26.288Z,100392.47
2023-05-28T18:10:31.716Z,100396.06
2023-05-28T18:12:37.469Z,100394.61
2023-05-28T18:14:43.012Z,100393.22
2023-05-28T18:16:48.694Z,100396.79
2023-05-28T18:18:57.608Z,100393.69
2023-05-28T18:21:08.139Z,100394.88
2023-05-28T18:23:13.596Z,100395.81
2023-05-28T18:25:19.285Z,100399.41
2023-05-28T18:27:24.765Z,100397.03
2023-05-28T18:29:30.416Z,100403.98
2023-05-28T18:31:36.952Z,100402.83
2023-05-28T18:33:42.632Z,100400.77
2023-05-28T18:35:48.882Z,100402.79
2023-05-28T18:37:54.328Z,100404.08
2023-05-28T18:39:59.781Z,100403.37
2023-05-28T18:42:05.518Z,100402.61
2023-05-28T18:44:10.883Z,100401.28
2023-05-28T18:46:17.468Z,100401.7
2023-05-28T18:48:23.088Z,100402.41
2023-05-28T18:50:28.622Z,100402.09
2023-05-28T18:52:34.155Z,100400.3
2023-05-28T18:54:39.595Z,100407.59
2023-05-28T18:56:45.041Z,100408.66
2023-05-28T18:58:50.483Z,100409.98
2023-05-28T19:00:56.086Z,100413.44
2023-05-28T19:03:01.711Z,100413.88
2023-05-28T19:05:07.213Z,100419.28
2023-05-28T19:07:12.432Z,100421.02
2023-05-28T19:09:17.783Z,100422.25
2023-05-28T19:11:23.193Z,100422.92
2023-05-28T19:13:28.496Z,100426.08
2023-05-28T19:15:33.816Z,100429.74
2023-05-28T19:17:39.145Z,100430.59
2023-05-28T19:19:44.585Z,100432.84
2023-05-28T19:21:49.807Z,100426.03
2023-05-28T19:23:55.212Z,100434.05
2023-05-28T19:26:00.571Z,100432.06
2023-05-28T19:28:05.842Z,100431.69
2023-05-28T19:30:11.067Z,100435.74
2023-05-28T19:32:16.491Z,100438.84
2023-05-28T19:34:21.873Z,100438.44
2023-05-28T19:36:27.298Z,100441.23
2023-05-28T19:38:32.615Z,100440.99
2023-05-28T19:40:38.051Z,100442.78
2023-05-28T19:42:43.229Z,100444.59
2023-05-28T19:44:48.336Z,100442.36
2023-05-28T19:46:53.656Z,100447.79
2023-05-28T19:48:58.907Z,100448.59
2023-05-28T19:51:04.222Z,100447
2023-05-28T19:53:09.632Z,100451.06
2023-05-28T19:55:15.009Z,100450.86
2023-05-28T19:57:20.238Z,100455.39
2023-05-28T19:59:25.581Z,100455.81
2023-05-28T20:01:30.984Z,100455.8
2023-05-28T20:03:36.339Z,100452.45
2023-05-28T20:05:41.698Z,100464.97
2023-05-28T20:07:47.131Z,100462.58
2023-05-28T20:09:52.379Z,100468.38
2023-05-28T20:11:57.708Z,100465.19
2023-05-28T20:14:03.040Z,100473.57
2023-05-28T20:16:08.625Z,100475.25
2023-05-28T20:18:14.027Z,100473.6
2023-05-28T20:20:19.422Z,100476.89
2023-05-28T20:22:24.806Z,100475.4
2023-05-28T20:24:30.145Z,100472.22
2023-05-28T20:26:35.515Z,100470.83
2023-05-28T20:28:40.820Z,100471.82
2023-05-28T20:30:46.225Z,100475.23
2023-05-28T20:32:51.635Z,100475.91
2023-05-28T20:34:57.042Z,100474.83
2023-05-28T20:37:02.276Z,100474.45
2023-05-28T20:39:07.728Z,100477.28
2023-05-28T20:41:13.054Z,100471.12
2023-05-28T20:43:18.379Z,100473.66
2023-05-28T20:45:23.765Z,100473.52
2023-05-28T20:47:29.184Z,100473.55
2023-05-28T20:49:34.606Z,100472.15
2023-05-28T20:51:39.844Z,100473.48
2023-05-28T20:53:45.186Z,100467.7
2023-05-28T20:55:50.618Z,100468.86
2023-05-28T20:57:55.958Z,100467.98
2023-05-28T21:00:01.290Z,100472.33
2023-05-28T21:02:07.409Z,100467.38
2023-05-28T21:04:16.075Z,100468.34
2023-05-28T21:06:21.409Z,100473.34
2023-05-28T21:08:26.752Z,100471.58
2023-05-28T21:10:32.185Z,100475.88
2023-05-28T21:12:37.563Z,100476.43
2023-05-28T21:14:42.945Z,100479.61
2023-05-28T21:16:48.340Z,100482.64
2023-05-28T21:18:53.881Z,100484.72
2023-05-28T21:20:59.859Z,100485.79
2023-05-28T21:23:05.340Z,100480.21
2023-05-28T21:25:10.784Z,100483.78
2023-05-28T21:27:16.213Z,100479.55
2023-05-28T21:29:21.557Z,100477.52
2023-05-28T21:31:27.284Z,100477.89
2023-05-28T21:33:32.647Z,100479.06
2023-05-28T21:35:38.077Z,100482.42
2023-05-28T21:37:43.578Z,100479.88
2023-05-28T21:39:48.761Z,100479.55
2023-05-28T21:41:54.085Z,100477.44
2023-05-28T21:43:59.337Z,100477.66
2023-05-28T21:46:04.667Z,100478.38
2023-05-28T21:48:10.283Z,100475.73
2023-05-28T21:50:15.748Z,100475.89
2023-05-28T21:52:21.125Z,100473.05
2023-05-28T21:54:26.425Z,100473.91
2023-05-28T21:56:31.764Z,100476.31
2023-05-28T21:58:37.203Z,100479.89
2023-05-28T22:00:42.644Z,100482.28
2023-05-28T22:02:48.272Z,100482.66
2023-05-28T22:04:53.728Z,100479.93
2023-05-28T22:06:59.017Z,100478.13
2023-05-28T22:09:04.418Z,100478.03
2023-05-28T22:11:09.852Z,100478.63
2023-05-28T22:13:15.194Z,100482.02
2023-05-28T22:15:20.631Z,100480.77
2023-05-28T22:17:26.048Z,100481.51
2023-05-28T22:19:31.519Z,100480.08
2023-05-28T22:21:36.838Z,100477.38
2023-05-28T22:23:42.182Z,100480.94
2023-05-28T22:25:47.519Z,100478.44
2023-05-28T22:27:52.962Z,100474.41
2023-05-28T22:29:58.183Z,100473.68
2023-05-28T22:32:03.821Z,100474.13
2023-05-28T22:34:09.302Z,100471.22
2023-05-28T22:36:14.512Z,100474.59
2023-05-28T22:38:19.855Z,100473.55
2023-05-28T22:40:25.300Z,100472.16
2023-05-28T22:42:30.767Z,100476.03
2023-05-28T22:44:36.093Z,100475.14
2023-05-28T22:46:41.367Z,100474.02
2023-05-28T22:48:46.649Z,100473.05
2023-05-28T22:50:52.105Z,100470.39
2023-05-28T22:52:57.426Z,100467.58
2023-05-28T22:55:02.662Z,100469.77
2023-05-28T22:57:08.000Z,100466.84
2023-05-28T22:59:13.335Z,100468.84
2023-05-28T23:01:18.861Z,100471.94
2023-05-28T23:03:24.780Z,100468.48
2023-05-28T23:05:30.279Z,100466.39
2023-05-28T23:07:35.609Z,100462.02
2023-05-28T23:09:41.050Z,100465.11
2023-05-28T23:11:46.706Z,100465.25
2023-05-28T23:13:52.141Z,100465.17
2023-05-28T23:15:57.593Z,100464.7
2023-05-28T23:18:02.984Z,100466.98
2023-05-28T23:20:08.523Z,100468.45
2023-05-28T23:22:13.899Z,100470.8
2023-05-28T23:24:19.137Z,100470.32
2023-05-28T23:26:24.468Z,100472.79
2023-05-28T23:28:29.926Z,100472.48
2023-05-28T23:30:35.763Z,100472.11
2023-05-28T23:32:41.291Z,100470.06
2023-05-28T23:34:46.642Z,100466.11
2023-05-28T23:36:51.997Z,100462.19
2023-05-28T23:38:57.618Z,100464.17
2023-05-28T23:41:02.965Z,100461.86
2023-05-28T23:43:08.295Z,100463.77
2023-05-28T23:45:13.641Z,100462.27
2023-05-28T23:47:19.195Z,100462.31
2023-05-28T23:49:24.733Z,100457.45
2023-05-28T23:51:30.060Z,100455.99
2023-05-28T23:53:35.319Z,100453.28
2023-05-28T23:55:40.650Z,100452.75
2023-05-28T23:57:45.866Z,100452.24
2023-05-28T23:59:51.173Z,100455.66
